This is the latest recevied weather packets stored in our database for station/object KJ6HT. If no packets are shown the sender has not sent any weather packets the latest 10 day(s).
| Time | Temp. | Humidity | Pressure | Rain* | Wind** | Luminosity | Snow |
|---|---|---|---|---|---|---|---|
| 1788471040 | 29.44° C | 45% | 1010.2 hPa | 0 mm | - | - | - |
| 1788470133 | 30° C | 44% | 1010.4 hPa | 0 mm | - | - | - |
| 1788469230 | 30° C | 44% | 1010.5 hPa | 0 mm | - | - | - |
| 1788468325 | 28.89° C | 47% | 1010.6 hPa | 0 mm | - | - | - |
| 1788467424 | 28.33° C | 46% | 1011 hPa | 0 mm | - | - | - |
| 1788466521 | 28.33° C | 46% | 1011.1 hPa | 0 mm | - | - | - |
| 1788465620 | 27.78° C | 47% | 1011.3 hPa | 0 mm | - | - | - |
| 1788464716 | 27.78° C | 47% | 1011.5 hPa | 0 mm | - | - | - |
| 1788463815 | 27.78° C | 47% | 1011.8 hPa | 0 mm | - | - | - |
| 1788462920 | 27.22° C | 49% | 1012 hPa | 0 mm | - | - | - |
| 1788462012 | 26.11° C | 49% | 1012.3 hPa | 0 mm | - | - | - |
| 1788461108 | 27.22° C | 47% | 1012.6 hPa | 0 mm | - | - | - |
| 1788460205 | 26.67° C | 48% | 1012.8 hPa | 0 mm | - | - | - |
| 1788459302 | 26.11° C | 48% | 1013 hPa | 0 mm | - | - | - |
| 1788458461 | 25.56° C | 50% | 1012.9 hPa | 0 mm | - | - | - |
| 1788457559 | 25° C | 54% | 1013.1 hPa | 0 mm | - | - | - |
| 1788456664 | 25° C | 53% | 1013.2 hPa | 0 mm | - | - | - |
| 1788455760 | 23.89° C | 58% | 1013.4 hPa | 0 mm | - | - | - |
| 1788454851 | 23.33° C | 60% | 1013.3 hPa | 0 mm | - | - | - |
| 1788453956 | 22.22° C | 62% | 1013.3 hPa | 0 mm | - | - | - |
| 1788453046 | 22.22° C | 64% | 1013.3 hPa | 0 mm | - | - | - |
| 1788452144 | 21.11° C | 67% | 1013.4 hPa | 0 mm | - | - | - |
| 1788451243 | 21.11° C | 69% | 1013.5 hPa | 0 mm | - | - | - |
| 1788450342 | 21.67° C | 68% | 1013.5 hPa | 0 mm | - | - | - |
| 1788449440 | 21.11° C | 69% | 1013.5 hPa | 0 mm | - | - | - |
* Rain latest hour (hover to see other rain measurements)
** Current wind speed in m/s (hover to see current wind gust speed)